Search for airport 
image banner adimage banner adimage banner ad
image banner ad

KHNR - Harlan Muni

Located in Harlan, United States

ICAO - HNR, IATA -

Data provided by Airmate  

General information

Coordinates: N41°35'4" W95°20'23"
Elevation is 1231 feet MSL.
Magnetic variation is 05° East
View others Airports in Iowa

Operational data

Special qualification required
Current time UTC:
Current local time:
Weather
METAR: KHNR 181755Z AUTO 09011KT 10SM CLR 30/14 A2985 RMK A01
View NOTAMs / SUP AIP / TFR affecting this airport [VIEW]
Communications frequencies: [VIEW]

Runways:

RWY identifierQFULength (ft)Width (ft)SurfaceLDA (ft)
0340°1712120GRASS
21220°1712120GRASS
15155°410075CONC
33335°410075CONC

Airport contact information

Address: Harlan United States

Satellite view of KHNR